LiveATC.Net - Listen to live air traffic control over the Internet!


ICAO: GOOY  IATA: DKR   Airport: Leopold Sedar Senghor International Airport
City: Dakar
Country: Senegal   Continent: Africa
GOOY METAR Weather: GOOY 131200Z 04016KT CAVOK 24/15 Q1015
GOOY Flight Activity (FlightAware)
GOOY Tower/Control
Feed Status: DOWN
Last heard on: 2017-12-03 11:07:02 (10 days 1 hours 58 minutes ago)
GOOY Tower/Control Audio Archives
FacilityFrequency
Dakar Control120.500
Dakar Tower118.100


NOTICE

Unauthorized use prohibited. See LiveATC.net Terms of Service


Find LiveATC Audio Streams


Airport/ARTCC Code

Frequency Search
(e.g., 124.400, 128.75)
Site-wide search
 


Browse LiveATC Feeds
LiveATC Coverage Map
Top 50 LiveATC Feeds
Bad Weather Areas

LiveATC FAQ
Offer a LiveATC Feed
Contact LiveATC.net
Press Inquiries

LiveATC on iPhone
LiveATC on Android

Windows Phone
Windows 8/10

LiveATC Mobile
(Mobile browser)

ATC Audio Archives
Interesting Recordings

LiveATC Forums


Home Page
About LiveATC.net
Make a Donation
Terms of Use
Privacy Policy

Canadian Air Freqs

AIRMETs/SIGMETs

FAA Airport Status
Nat'l Airspace Status
Arrival Demand Charts


Server Software By:
Icecast.org
Liquidsoap